Time;durP1;ratioP1;P1;durP2;ratioP2;P2;SDS_P1;SDS_P2;PMS_P1;PMS_P2;Temp;Humidity;BMP_temperature;BMP_pressure;BME280_temperature;BME280_humidity;BME280_pressure;Samples;Min_cycle;Max_cycle;Signal;HPM_P1;HPM_P2
2022/12/26 00:01:09;;;;;;;;;;;9.00;99.90;;;8.51;100.00;97223.22;4990511;28;20752;-41
2022/12/26 00:03:35;;;;;;;;;;;9.00;99.90;;;8.59;100.00;97213.31;4990169;28;20515;-41
2022/12/26 00:06:00;;;;;;;;;;;9.10;99.90;;;8.69;100.00;97229.66;4997579;28;19925;-40
2022/12/26 00:08:26;;;;;;;;;;;9.10;99.90;;;8.77;100.00;97222.38;4994136;28;19967;-41
2022/12/26 00:10:52;;;;;;;;;;;9.30;99.90;;;8.70;100.00;97202.44;4998637;28;20250;-41
2022/12/26 00:13:17;;;;;;;;;;;9.30;99.90;;;8.86;100.00;97229.09;5003005;28;19932;-41
2022/12/26 00:15:43;;;;;;;;;;;9.40;99.90;;;8.87;100.00;97233.47;4993941;28;19929;-41
2022/12/26 00:18:09;;;;;;;;;;;9.40;99.90;;;8.74;100.00;97214.56;4985039;28;20461;-41
2022/12/26 00:20:34;;;;;;;;;;;9.40;99.90;;;8.86;100.00;97226.47;4994142;28;20741;-42
2022/12/26 00:23:00;;;;;;;;;;;9.40;99.90;;;8.88;100.00;97246.56;4986321;28;20432;-41
2022/12/26 00:25:26;;;;;;;;;;;9.40;99.90;;;8.84;100.00;97230.94;5001868;28;19920;-41
2022/12/26 00:27:51;;;;;;;;;;;9.40;99.90;;;8.88;100.00;97240.44;5004800;28;19917;-41
2022/12/26 00:30:17;;;;;;;;;;;9.40;99.90;;;8.91;100.00;97246.44;5005974;28;20302;-41
2022/12/26 00:32:43;;;;;;;;;;;9.40;99.90;;;8.91;100.00;97246.44;5012559;28;19943;-41
2022/12/26 00:35:08;;;;;;;;;;;9.50;99.90;;;8.93;100.00;97249.88;5005569;28;20502;-41
2022/12/26 00:37:34;;;;;;;;;;;9.50;99.90;;;8.91;100.00;97251.72;5002771;28;19917;-41
2022/12/26 00:39:59;;;;;;;;;;;9.50;99.90;;;8.88;100.00;97245.69;5008300;28;20276;-41
2022/12/26 00:42:25;;;;;;;;;;;9.40;99.90;;;8.83;100.00;97247.59;4999723;28;20479;-41
2022/12/26 00:44:51;;;;;;;;;;;9.40;99.90;;;8.76;100.00;97241.72;5006093;28;19943;-41
2022/12/26 00:47:16;;;;;;;;;;;9.30;99.90;;;8.72;100.00;97248.84;5010917;28;19921;-41
2022/12/26 00:49:42;;;;;;;;;;;9.30;99.90;;;8.69;100.00;97238.41;5008587;28;20008;-41
2022/12/26 00:52:08;;;;;;;;;;;9.20;99.90;;;8.66;100.00;97241.13;5005267;28;19926;-40
2022/12/26 00:54:33;;;;;;;;;;;9.20;99.90;;;8.49;100.00;97219.75;5005975;28;19952;-41
2022/12/26 00:56:59;;;;;;;;;;;9.10;99.90;;;8.49;100.00;97233.78;5004642;28;20308;-41
2022/12/26 00:59:24;;;;;;;;;;;9.10;99.90;;;8.49;100.00;97244.28;5004470;28;20142;-41
2022/12/26 01:01:50;;;;;;;;;;;9.00;99.90;;;8.47;100.00;97240.84;5000169;28;19917;-40
2022/12/26 01:04:16;;;;;;;;;;;9.00;99.90;;;8.44;100.00;97238.31;5007752;28;19972;-41
2022/12/26 01:06:41;;;;;;;;;;;9.00;99.90;;;8.41;100.00;97238.38;5009648;28;20628;-41
2022/12/26 01:09:10;;;;;;;;;;;9.00;99.90;;;8.27;100.00;97216.91;5011949;28;19929;-41
2022/12/26 01:11:39;;;;;;;;;;;8.90;99.90;;;8.31;100.00;97236.91;5005007;28;20464;-41
2022/12/26 01:14:06;;;;;;;;;;;8.90;99.90;;;8.25;100.00;97240.59;5006097;28;20036;-41
2022/12/26 01:16:32;;;;;;;;;;;8.80;99.90;;;8.19;100.00;97231.16;5010990;28;20399;-41
2022/12/26 01:18:58;;;;;;;;;;;8.80;99.90;;;8.15;100.00;97236.56;5008217;28;19925;-41
2022/12/26 01:21:23;;;;;;;;;;;8.70;99.90;;;8.14;100.00;97247.94;5008352;28;19921;-41
2022/12/26 01:23:49;;;;;;;;;;;8.70;99.90;;;8.11;100.00;97248.91;5011573;28;20003;-41
2022/12/26 01:26:14;;;;;;;;;;;8.70;99.90;;;8.11;100.00;97251.53;5007490;28;20007;-41
2022/12/26 01:28:40;;;;;;;;;;;8.70;99.90;;;8.12;100.00;97245.38;5009877;28;19939;-41
2022/12/26 01:31:06;;;;;;;;;;;8.70;99.90;;;8.09;100.00;97240.19;5009889;28;20397;-40
2022/12/26 01:33:32;;;;;;;;;;;8.70;99.90;;;8.10;100.00;97241.94;5011524;28;19921;-40
2022/12/26 01:35:58;;;;;;;;;;;8.70;99.90;;;8.06;100.00;97221.94;5006699;28;19964;-41
2022/12/26 01:38:23;;;;;;;;;;;8.70;99.90;;;8.11;100.00;97243.66;5011529;28;20448;-41
2022/12/26 01:41:15;;;;;;;;;;;8.70;99.90;;;8.11;100.00;97245.41;5008426;28;19917;-40
2022/12/26 01:43:58;;;;;;;;;;;8.70;99.90;;;8.12;100.00;97253.25;5008191;28;19924;-41
2022/12/26 01:46:37;;;;;;;;;;;8.70;99.90;;;8.14;100.00;97245.31;5010932;28;19920;-41
2022/12/26 01:49:08;;;;;;;;;;;8.70;99.90;;;8.13;100.00;97233.97;5027228;28;20004;-41
2022/12/26 01:51:36;;;;;;;;;;;8.70;99.90;;;8.14;100.00;97237.44;5009275;28;20036;-41
2022/12/26 01:54:03;;;;;;;;;;;8.70;99.90;;;8.15;100.00;97249.69;5011339;28;19917;-41
2022/12/26 01:56:33;;;;;;;;;;;8.70;99.90;;;8.17;100.00;97237.38;5026817;28;20365;-41
2022/12/26 01:59:05;;;;;;;;;;;8.70;99.90;;;8.17;100.00;97240.84;5011555;28;20461;-41
2022/12/26 02:01:32;;;;;;;;;;;8.70;99.90;;;8.23;100.00;97243.28;5013118;28;20885;-41
2022/12/26 02:06:43;;;;;;;;;;;8.80;99.90;;;8.34;100.00;97236.84;5008005;28;21134;-38
2022/12/26 02:09:09;;;;;;;;;;;8.90;99.90;;;8.38;100.00;97241.09;5007207;28;19917;-41
2022/12/26 02:11:44;;;;;;;;;;;8.90;99.90;;;8.36;100.00;97235.03;5009266;28;20025;-41
2022/12/26 02:14:10;;;;;;;;;;;8.90;99.90;;;8.36;100.00;97238.53;5025128;28;20007;-41
2022/12/26 02:16:38;;;;;;;;;;;8.90;99.90;;;8.38;100.00;97225.31;5023022;28;19924;-39
2022/12/26 02:19:05;;;;;;;;;;;8.90;99.90;;;8.37;100.00;97236.75;5026516;28;20450;-39
2022/12/26 02:21:37;;;;;;;;;;;8.90;99.90;;;8.35;100.00;97231.53;5038827;28;19925;-39
2022/12/26 02:24:06;;;;;;;;;;;8.90;99.90;;;8.30;100.00;97230.81;5025453;28;20015;-39
2022/12/26 02:26:51;;;;;;;;;;;8.90;99.90;;;8.28;100.00;97224.75;5027113;28;19916;-40
2022/12/26 02:29:35;;;;;;;;;;;8.80;99.90;;;8.22;100.00;97220.56;5025765;28;19932;-40
2022/12/26 02:32:05;;;;;;;;;;;8.80;99.90;;;8.24;100.00;97233.66;5024442;28;19922;-40
2022/12/26 02:34:43;;;;;;;;;;;8.80;99.90;;;8.28;100.00;97244.91;5025530;28;19920;-40
2022/12/26 02:37:28;;;;;;;;;;;8.80;99.90;;;8.31;100.00;97250.06;5027894;28;19925;-40
2022/12/26 02:40:18;;;;;;;;;;;8.90;99.90;;;8.36;100.00;97248.16;5024193;28;20118;-40
2022/12/26 02:42:52;;;;;;;;;;;9.00;99.90;;;8.45;100.00;97253.16;5022558;28;20929;-39
2022/12/26 02:48:26;;;;;;;;;;;9.10;99.90;;;8.63;100.00;97240.34;5028508;28;20312;-39
2022/12/26 03:14:27;;;;;;;;;;;9.50;99.90;;;8.94;100.00;97243.72;5035968;28;20010;-39
2022/12/26 03:19:58;;;;;;;;;;;9.50;99.90;;;8.92;100.00;97244.69;5019106;28;19963;-39
2022/12/26 03:22:30;;;;;;;;;;;9.40;99.90;;;8.83;100.00;97237.09;5024628;28;19917;-39
2022/12/26 03:27:39;;;;;;;;;;;9.30;99.90;;;8.70;100.00;97234.84;5027306;28;19931;-40
2022/12/26 03:32:51;;;;;;;;;;;9.20;99.90;;;8.64;100.00;97221.06;5023932;28;19927;-39
2022/12/26 03:35:17;;;;;;;;;;;9.20;99.90;;;8.59;100.00;97222.06;5018934;28;20136;-40
2022/12/26 03:37:51;;;;;;;;;;;9.20;99.90;;;8.54;100.00;97218.72;5026858;28;19920;-39
2022/12/26 04:19:25;;;;;;;;;;;9.50;99.90;;;9.01;100.00;97240.88;5028791;28;19954;-40
2022/12/26 04:44:48;;;;;;;;;;;10.00;99.90;;;9.63;100.00;97247.53;5027751;28;20020;-40
2022/12/26 04:47:14;;;;;;;;;;;10.20;99.90;;;9.70;100.00;97236.72;5026004;28;19913;-40
2022/12/26 04:52:53;;;;;;;;;;;10.20;99.90;;;9.75;100.00;97232.16;5026005;28;19924;-39
2022/12/26 04:55:14;;;;;;;;;;;10.20;99.90;;;9.69;100.00;97213.06;5023938;28;19917;-40
2022/12/26 04:57:40;;;;;;;;;;;10.20;99.90;;;9.72;100.00;97231.41;5030166;28;19927;-40
2022/12/26 05:00:05;;;;;;;;;;;10.20;99.90;;;9.63;100.00;97224.69;5024596;28;19924;-40
2022/12/26 05:10:44;;;;;;;;;;;10.10;99.90;;;9.58;100.00;97241.56;5027991;28;19928;-40
2022/12/26 05:13:09;;;;;;;;;;;10.10;99.90;;;9.57;100.00;97240.72;5025447;28;20380;-40
2022/12/26 05:28:40;;;;;;;;;;;10.10;99.90;;;9.50;100.00;97245.34;5024348;28;19933;-40
2022/12/26 05:29:24;;;;;;;;;;;9.80;99.90;;;9.28;100.00;97234.69;5020187;28;20379;-40
2022/12/26 05:31:50;;;;;;;;;;;9.80;99.90;;;9.26;100.00;97246.19;5019674;28;20015;-40
2022/12/26 05:34:19;;;;;;;;;;;9.80;99.90;;;9.25;100.00;97240.06;5023191;28;19924;-40
2022/12/26 05:36:46;;;;;;;;;;;9.80;99.90;;;9.23;100.00;97238.41;5025687;28;19929;-40
2022/12/26 05:39:12;;;;;;;;;;;9.70;99.90;;;9.21;100.00;97241.09;5019983;28;19921;-40
2022/12/26 05:41:39;;;;;;;;;;;9.70;99.90;;;9.26;100.00;97244.44;5023119;28;20421;-40
2022/12/26 05:44:05;;;;;;;;;;;9.80;99.90;;;9.39;100.00;97247.50;5021461;28;20194;-40
2022/12/26 05:46:31;;;;;;;;;;;9.90;99.90;;;9.42;100.00;97246.50;5024749;28;20003;-41
2022/12/26 05:48:56;;;;;;;;;;;10.00;99.90;;;9.57;100.00;97256.53;5024549;28;20351;-40
2022/12/26 05:51:22;;;;;;;;;;;10.10;99.90;;;9.62;100.00;97258.97;5025044;28;19925;-40
2022/12/26 05:53:48;;;;;;;;;;;10.20;99.90;;;9.60;100.00;97247.63;5026492;28;19917;-40
2022/12/26 05:56:15;;;;;;;;;;;10.20;99.90;;;9.75;100.00;97260.28;5023173;28;19964;-40
2022/12/26 05:58:41;;;;;;;;;;;10.30;99.90;;;9.72;100.00;97253.31;5020668;28;19924;-40
2022/12/26 06:01:12;;;;;;;;;;;10.30;99.90;;;9.82;100.00;97258.28;5019235;28;19927;-41
2022/12/26 06:03:42;;;;;;;;;;;10.30;99.90;;;9.82;100.00;97253.88;5022506;28;19944;-41
2022/12/26 06:06:08;;;;;;;;;;;10.30;99.90;;;9.83;100.00;97257.34;5020656;28;20648;-41
2022/12/26 06:08:33;;;;;;;;;;;10.30;99.90;;;9.86;100.00;97257.25;5021819;28;19962;-41
2022/12/26 06:11:02;;;;;;;;;;;10.30;99.90;;;9.80;100.00;97244.28;5022931;28;19924;-41
2022/12/26 06:13:28;;;;;;;;;;;10.40;99.90;;;9.96;100.00;97258.66;5024094;28;20376;-41
2022/12/26 06:15:54;;;;;;;;;;;10.50;99.90;;;10.01;100.00;97250.56;5017676;28;20012;-40
2022/12/26 06:18:19;;;;;;;;;;;10.50;99.90;;;9.97;100.00;97241.91;5026218;28;19925;-40
2022/12/26 06:20:45;;;;;;;;;;;10.50;99.90;;;10.01;100.00;97251.41;5018452;28;20000;-40
2022/12/26 06:23:10;;;;;;;;;;;10.50;99.90;;;9.98;100.00;97254.16;5013400;28;20206;-40
2022/12/26 06:25:36;;;;;;;;;;;10.50;99.90;;;9.97;100.00;97255.06;5024031;28;19962;-40
2022/12/26 06:28:02;;;;;;;;;;;10.40;99.90;;;9.93;100.00;97253.47;5027692;28;19998;-40
2022/12/26 06:30:27;;;;;;;;;;;10.40;99.90;;;9.74;100.00;97213.78;5025950;28;20006;-40
2022/12/26 06:32:53;;;;;;;;;;;10.40;99.90;;;9.88;100.00;97242.25;5023264;28;19936;-40
2022/12/26 06:35:18;;;;;;;;;;;10.40;99.90;;;9.86;100.00;97241.44;5018132;28;19953;-40
2022/12/26 06:37:44;;;;;;;;;;;10.40;99.90;;;9.87;100.00;97245.78;5019676;28;20174;-40
2022/12/26 06:40:10;;;;;;;;;;;10.40;99.90;;;9.82;100.00;97229.31;5026898;28;19921;-40
2022/12/26 06:42:35;;;;;;;;;;;10.30;99.90;;;9.81;100.00;97243.38;5011017;28;20452;-40
2022/12/26 06:45:01;;;;;;;;;;;10.30;99.90;;;9.75;100.00;97232.16;5024030;28;19990;-40
2022/12/26 06:47:27;;;;;;;;;;;10.40;99.90;;;9.80;100.00;97249.56;5027260;28;19917;-40
2022/12/26 06:49:53;;;;;;;;;;;10.30;99.90;;;9.81;100.00;97244.25;5025789;28;20328;-40
2022/12/26 06:52:19;;;;;;;;;;;10.40;99.90;;;9.83;100.00;97249.44;5023963;28;20684;-40
2022/12/26 06:54:44;;;;;;;;;;;10.40;99.90;;;9.67;100.00;97230.72;5023009;28;20098;-40
2022/12/26 06:57:10;;;;;;;;;;;10.30;99.90;;;9.75;100.00;97242.69;5020617;28;19921;-40
2022/12/26 06:59:36;;;;;;;;;;;10.30;99.90;;;9.83;100.00;97262.63;5020213;28;20096;-40
2022/12/26 07:02:01;;;;;;;;;;;10.40;99.90;;;9.94;100.00;97257.81;5021209;28;19921;-40
2022/12/26 07:04:27;;;;;;;;;;;10.40;99.90;;;10.01;100.00;97261.09;5022991;28;19971;-40
2022/12/26 07:06:52;;;;;;;;;;;10.50;99.90;;;9.99;100.00;97253.25;5019810;28;19931;-40
2022/12/26 07:09:18;;;;;;;;;;;10.50;99.90;;;10.07;100.00;97267.00;5018439;28;19947;-40
2022/12/26 07:11:46;;;;;;;;;;;10.60;99.90;;;10.07;100.00;97274.06;5023491;28;20522;-40
2022/12/26 07:14:13;;;;;;;;;;;10.60;99.90;;;10.09;100.00;97270.44;5022051;28;20019;-40
2022/12/26 07:16:40;;;;;;;;;;;10.60;99.90;;;10.08;100.00;97266.06;5026467;28;20315;-40
2022/12/26 07:19:06;;;;;;;;;;;10.60;99.90;;;10.05;100.00;97260.94;5020190;28;19925;-40
2022/12/26 07:21:32;;;;;;;;;;;10.60;99.90;;;10.02;100.00;97258.41;5023465;28;20409;-40
2022/12/26 07:23:57;;;;;;;;;;;10.50;99.90;;;10.02;100.00;97263.69;5015842;28;20031;-40
2022/12/26 07:26:24;;;;;;;;;;;10.50;99.90;;;9.95;100.00;97262.19;5024199;28;19924;-40
2022/12/26 07:28:53;;;;;;;;;;;10.50;99.90;;;10.03;100.00;97281.22;5024008;28;19971;-41
2022/12/26 07:31:19;;;;;;;;;;;10.50;99.90;;;10.04;100.00;97272.38;5023016;28;20356;-40
2022/12/26 07:33:49;;;;;;;;;;;10.60;99.90;;;10.03;100.00;97268.03;5023307;28;19916;-40
2022/12/26 07:36:15;;;;;;;;;;;10.60;99.90;;;10.02;100.00;97271.56;5016663;28;19964;-40
2022/12/26 07:38:41;;;;;;;;;;;10.60;99.90;;;9.94;100.00;97261.34;5024423;28;19921;-40
2022/12/26 07:43:51;;;;;;;;;;;10.50;99.90;;;9.99;100.00;97257.66;5027339;28;19931;-40
2022/12/26 07:46:16;;;;;;;;;;;10.50;99.90;;;10.00;100.00;97276.03;5029228;28;19925;-40
2022/12/26 07:48:42;;;;;;;;;;;10.50;99.90;;;10.05;100.00;97273.22;5028806;28;19917;-40
2022/12/26 07:51:08;;;;;;;;;;;10.50;99.90;;;10.03;100.00;97265.41;5026124;28;20365;-40
2022/12/26 07:53:33;;;;;;;;;;;10.60;99.90;;;10.07;100.00;97272.28;5028938;28;20023;-40
2022/12/26 07:55:59;;;;;;;;;;;10.60;99.90;;;10.03;100.00;97269.78;5027778;28;20059;-40
2022/12/26 07:58:25;;;;;;;;;;;10.60;99.90;;;10.08;100.00;97292.41;5026333;28;20292;-40
2022/12/26 08:00:50;;;;;;;;;;;10.60;99.90;;;10.06;100.00;97281.06;5020897;28;20065;-40
2022/12/26 08:03:16;;;;;;;;;;;10.60;99.90;;;9.57;100.00;97208.28;5040583;22;19964;-39
2022/12/26 08:05:46;;;;;;;;;;;10.60;99.90;;;10.04;100.00;97293.47;5051802;28;19925;-40
2022/12/26 08:08:12;;;;;;;;;;;10.50;99.90;;;10.00;100.00;97283.94;5056307;28;19927;-41
2022/12/26 08:10:37;;;;;;;;;;;10.50;99.90;;;9.96;100.00;97289.38;5052489;28;19924;-40
2022/12/26 08:13:03;;;;;;;;;;;10.50;99.90;;;9.91;100.00;97282.50;5048297;28;19955;-40
2022/12/26 08:15:29;;;;;;;;;;;10.40;99.90;;;9.87;100.00;97280.03;5052000;28;19931;-40
2022/12/26 08:17:54;;;;;;;;;;;10.40;99.90;;;9.85;100.00;97284.50;5053472;28;19967;-41
2022/12/26 08:20:20;;;;;;;;;;;10.40;99.90;;;9.87;100.00;97290.56;5055539;28;19946;-41
2022/12/26 08:22:45;;;;;;;;;;;10.40;99.90;;;9.89;100.00;97296.66;5051768;28;20025;-41
2022/12/26 08:25:11;;;;;;;;;;;10.40;99.90;;;9.92;100.00;97293.91;5056288;28;19967;-41
2022/12/26 08:27:37;;;;;;;;;;;10.40;99.90;;;9.99;100.00;97302.44;5057459;28;20040;-41
2022/12/26 08:30:03;;;;;;;;;;;10.50;99.90;;;9.99;100.00;97300.66;5054631;28;20472;-40
2022/12/26 08:32:29;;;;;;;;;;;10.50;99.90;;;10.03;100.00;97304.94;5057251;28;19925;-40
2022/12/26 08:34:55;;;;;;;;;;;10.50;99.90;;;10.04;100.00;97311.06;5052885;28;20411;-40
2022/12/26 08:37:22;;;;;;;;;;;10.60;99.90;;;10.07;100.00;97318.84;5054682;28;19985;-40
2022/12/26 08:39:49;;;;;;;;;;;10.60;99.90;;;10.07;100.00;97324.97;5057982;28;20392;-40
2022/12/26 08:42:14;;;;;;;;;;;10.60;99.90;;;10.07;100.00;97324.97;5055214;28;19920;-40
2022/12/26 08:44:40;;;;;;;;;;;10.60;99.90;;;10.08;100.00;97331.09;5051424;28;19923;-40
2022/12/26 08:47:06;;;;;;;;;;;10.60;99.90;;;10.04;100.00;97332.97;5052433;28;20015;-41
2022/12/26 08:49:31;;;;;;;;;;;10.60;99.90;;;10.09;100.00;97338.09;5054973;28;19924;-41
2022/12/26 08:51:57;;;;;;;;;;;10.60;99.90;;;10.03;100.00;97341.81;5055953;28;19963;-41
2022/12/26 08:54:22;;;;;;;;;;;10.60;99.90;;;10.03;100.00;97354.09;5057307;28;19924;-41
2022/12/26 08:56:48;;;;;;;;;;;10.60;99.90;;;9.97;100.00;97354.34;5057256;28;19924;-41
2022/12/26 08:59:14;;;;;;;;;;;10.50;99.90;;;10.01;100.00;97375.22;5054178;28;20461;-41
2022/12/26 09:01:39;;;;;;;;;;;10.50;99.90;;;9.97;100.00;97378.03;5054199;28;19921;-41
2022/12/26 09:04:07;;;;;;;;;;;10.50;99.90;;;9.96;100.00;97387.72;5045299;28;19986;-41
2022/12/26 09:06:34;;;;;;;;;;;10.50;99.90;;;9.94;100.00;97394.81;5050550;28;20291;-41
2022/12/26 09:09:00;;;;;;;;;;;10.50;99.90;;;9.88;100.00;97403.78;5055788;28;20269;-41
2022/12/26 09:11:27;;;;;;;;;;;10.40;99.90;;;9.85;100.00;97395.13;5047974;28;19921;-40
2022/12/26 09:13:54;;;;;;;;;;;10.40;99.90;;;9.81;100.00;97397.00;5055769;28;21088;-41
2022/12/26 09:16:26;;;;;;;;;;;10.40;99.90;;;9.78;100.00;97397.13;5050580;28;19970;-40
2022/12/26 09:18:56;;;;;;;;;;;10.30;99.90;;;9.75;100.00;97402.50;5045555;28;20386;-42
2022/12/26 09:21:22;;;;;;;;;;;10.30;99.90;;;9.74;100.00;97409.53;5046359;28;20218;-40
2022/12/26 09:23:48;;;;;;;;;;;10.30;99.90;;;9.70;100.00;97394.72;5041521;28;20165;-40
2022/12/26 09:26:16;;;;;;;;;;;10.30;99.90;;;9.73;100.00;97396.41;5039991;28;20066;-40
2022/12/26 09:28:42;;;;;;;;;;;10.20;99.90;;;9.75;100.00;97392.81;5051307;28;19956;-40
2022/12/26 09:31:11;;;;;;;;;;;10.30;99.90;;;9.75;100.00;97387.53;5053444;28;20324;-42
2022/12/26 09:33:37;;;;;;;;;;;10.30;99.90;;;9.80;100.00;97391.78;5039948;28;19928;-41
2022/12/26 09:36:10;;;;;;;;;;;10.40;99.90;;;9.87;100.00;97391.53;5048493;28;19920;-40
2022/12/26 09:38:36;;;;;;;;;;;10.40;99.90;;;9.92;100.00;97409.81;5043698;28;20164;-41
2022/12/26 09:41:29;;;;;;;;;;;10.50;99.90;;;9.95;100.00;97414.97;5040998;28;19970;-41
2022/12/26 09:44:22;;;;;;;;;;;10.50;99.90;;;9.96;100.00;97418.47;5044357;28;20230;-41
2022/12/26 09:47:15;;;;;;;;;;;10.50;99.90;;;9.87;100.00;97428.41;5045873;28;19942;-40
2022/12/26 09:49:50;;;;;;;;;;;10.50;99.90;;;9.78;100.00;97444.53;5046072;28;19927;-40
2022/12/26 09:52:19;;;;;;;;;;;10.30;99.90;;;9.77;100.00;97457.75;5038004;28;19917;-41
2022/12/26 09:54:52;;;;;;;;;;;10.30;99.90;;;9.58;100.00;97452.19;5047100;28;19924;-40
2022/12/26 09:57:24;;;;;;;;;;;10.20;99.90;;;9.44;100.00;97455.25;5041658;28;19935;-40
2022/12/26 09:59:57;;;;;;;;;;;10.00;99.90;;;9.26;100.00;97461.97;5050511;28;19920;-40
2022/12/26 10:02:24;;;;;;;;;;;9.90;99.90;;;9.07;100.00;97465.16;5046715;28;19917;-40
2022/12/26 10:04:50;;;;;;;;;;;9.70;99.90;;;8.93;100.00;97460.28;5038106;28;19942;-40
2022/12/26 10:07:29;;;;;;;;;;;9.60;99.90;;;8.83;100.00;97463.25;5049557;28;19924;-40
2022/12/26 10:09:54;;;;;;;;;;;9.50;99.90;;;8.76;100.00;97465.22;5049495;28;19924;-40
2022/12/26 10:12:35;;;;;;;;;;;9.40;99.90;;;8.70;100.00;97470.63;5037500;28;19932;-40
2022/12/26 10:15:39;;;;;;;;;;;9.30;99.90;;;8.66;100.00;97467.22;5048153;28;20746;-40
2022/12/26 10:18:36;;;;;;;;;;;9.20;99.90;;;8.64;100.00;97462.94;5046587;28;20472;-40
2022/12/26 10:21:07;;;;;;;;;;;9.20;99.90;;;8.63;100.00;97471.69;5044405;28;19920;-40
2022/12/26 10:23:34;;;;;;;;;;;9.20;99.90;;;8.63;100.00;97455.94;5042192;28;20110;-41
2022/12/26 10:26:17;;;;;;;;;;;9.20;99.90;;;8.60;100.00;97459.53;5045716;28;19962;-40
2022/12/26 10:28:46;;;;;;;;;;;9.20;99.90;;;8.66;100.00;97464.59;5048135;28;19927;-41
2022/12/26 10:31:17;;;;;;;;;;;9.20;99.90;;;8.65;100.00;97460.25;5039720;28;20003;-40
2022/12/26 10:33:51;;;;;;;;;;;9.20;99.90;;;8.70;100.00;97457.47;5055085;28;20432;-41
2022/12/26 10:36:34;;;;;;;;;;;9.30;99.90;;;8.74;100.00;97462.63;5051704;28;19925;-41
2022/12/26 10:39:02;;;;;;;;;;;9.30;99.90;;;8.80;100.00;97466.84;5054063;28;19973;-41
2022/12/26 10:41:37;;;;;;;;;;;9.40;99.90;;;8.81;100.00;97473.84;5044295;28;19972;-40
2022/12/26 10:44:02;;;;;;;;;;;9.40;99.90;;;8.84;100.00;97467.59;5052710;28;19960;-41
2022/12/26 10:46:40;;;;;;;;;;;9.40;99.90;;;8.82;100.00;97462.38;5045204;28;20008;-40
2022/12/26 10:49:10;;;;;;;;;;;9.40;99.90;;;8.84;100.00;97467.59;5045832;28;19923;-41
2022/12/26 10:51:37;;;;;;;;;;;9.40;99.90;;;8.69;100.00;97459.25;5051673;28;19920;-40
2022/12/26 10:54:02;;;;;;;;;;;9.40;99.90;;;8.87;100.00;97480.69;5040432;28;19920;-40
2022/12/26 10:56:30;;;;;;;;;;;9.40;99.90;;;8.93;100.00;97475.22;5042353;28;19978;-41
2022/12/26 10:59:00;;;;;;;;;;;9.50;99.90;;;8.98;100.00;97470.69;5050895;28;20158;-41
2022/12/26 11:01:35;;;;;;;;;;;9.50;99.90;;;9.00;100.00;97470.66;5032851;28;19999;-41
2022/12/26 11:04:03;;;;;;;;;;;9.60;99.90;;;8.91;100.00;97470.00;5045278;28;20000;-41
2022/12/26 11:06:36;;;;;;;;;;;9.60;99.90;;;8.96;100.00;97483.88;5041483;28;19925;-41
2022/12/26 11:09:02;;;;;;;;;;;9.50;99.90;;;8.98;100.00;97481.22;5042521;28;20209;-40
2022/12/26 11:11:44;;;;;;;;;;;9.50;99.90;;;8.97;100.00;97461.97;5047202;28;20303;-41
2022/12/26 11:14:35;;;;;;;;;;;9.50;99.90;;;9.01;100.00;97452.19;5047388;28;20069;-40
2022/12/26 11:17:05;;;;;;;;;;;9.60;99.90;;;9.02;100.00;97453.06;5043765;28;19923;-41
2022/12/26 11:19:39;;;;;;;;;;;9.60;99.90;;;9.02;100.00;97450.44;5042431;28;19932;-41
2022/12/26 11:22:28;;;;;;;;;;;9.60;99.90;;;9.10;100.00;97436.13;5047206;28;19925;-41
2022/12/26 11:25:09;;;;;;;;;;;9.70;99.90;;;9.17;100.00;97429.78;5042483;28;19924;-43
2022/12/26 11:27:36;;;;;;;;;;;9.70;99.90;;;9.24;100.00;97429.56;5042050;28;20317;-41
2022/12/26 11:30:13;;;;;;;;;;;9.80;99.90;;;9.29;100.00;97410.09;5047607;28;20496;-42
2022/12/26 11:32:43;;;;;;;;;;;9.90;99.90;;;9.35;100.00;97414.34;5048883;28;19924;-42
2022/12/26 11:35:23;;;;;;;;;;;10.00;99.90;;;9.38;100.00;97421.25;5045676;28;19973;-41
2022/12/26 11:37:54;;;;;;;;;;;10.00;99.90;;;9.49;100.00;97448.97;5037692;28;19921;-41
2022/12/26 11:40:24;;;;;;;;;;;10.10;99.90;;;9.47;100.00;97461.28;5044372;28;20438;-41
2022/12/26 11:42:54;;;;;;;;;;;10.10;99.90;;;9.36;100.00;97459.00;5055149;28;19921;-40
2022/12/26 11:45:23;;;;;;;;;;;10.00;99.90;;;9.32;100.00;97453.91;5047233;28;19948;-40
2022/12/26 11:47:49;;;;;;;;;;;10.00;99.90;;;9.28;100.00;97471.56;5050328;28;19920;-40
2022/12/26 11:50:20;;;;;;;;;;;9.90;99.90;;;9.29;100.00;97452.19;5056262;28;20357;-40
2022/12/26 11:52:54;;;;;;;;;;;9.90;99.90;;;9.28;100.00;97447.88;5047665;28;19969;-40
2022/12/26 11:55:23;;;;;;;;;;;9.90;99.90;;;9.25;100.00;97431.31;5045669;28;20139;-39
2022/12/26 11:58:06;;;;;;;;;;;9.90;99.90;;;9.22;100.00;97440.16;5054498;28;19960;-39
2022/12/26 12:00:58;;;;;;;;;;;9.80;99.90;;;9.22;100.00;97445.41;5044335;28;19943;-40
2022/12/26 12:03:32;;;;;;;;;;;9.80;99.90;;;9.23;100.00;97423.47;5039814;28;19920;-39
2022/12/26 12:06:17;;;;;;;;;;;9.90;99.90;;;9.21;100.00;97408.63;5043809;28;20463;-40
2022/12/26 12:08:50;;;;;;;;;;;9.80;99.90;;;9.31;100.00;97407.41;5039195;28;19924;-40
2022/12/26 12:11:38;;;;;;;;;;;9.90;99.90;;;9.45;100.00;97423.63;5044941;28;22851;-40
2022/12/26 12:14:41;;;;;;;;;;;10.00;99.90;;;9.61;100.00;97405.56;5030940;28;20291;-40
2022/12/26 12:17:21;;;;;;;;;;;10.20;99.90;;;9.70;100.00;97426.31;5045141;28;19924;-40
2022/12/26 12:20:13;;;;;;;;;;;10.40;99.90;;;9.85;100.00;97437.25;5046228;28;19984;-40
2022/12/26 12:22:52;;;;;;;;;;;10.40;99.90;;;9.92;100.00;97439.66;5063364;28;19916;-40
2022/12/26 12:25:24;;;;;;;;;;;10.50;99.90;;;9.99;100.00;97450.84;5048278;28;19921;-40
2022/12/26 12:28:03;;;;;;;;;;;10.60;99.90;;;10.04;100.00;97438.38;5048290;28;20002;-40
2022/12/26 12:30:40;;;;;;;;;;;10.70;99.90;;;10.09;100.00;97428.53;5050042;28;19916;-39
2022/12/26 12:33:31;;;;;;;;;;;10.70;99.90;;;10.13;100.00;97432.78;5050539;28;20066;-39
2022/12/26 12:36:07;;;;;;;;;;;10.70;99.90;;;10.10;100.00;97429.38;5046247;28;19923;-40
2022/12/26 12:38:44;;;;;;;;;;;10.80;99.90;;;10.11;100.00;97431.97;5027123;28;19920;-40
2022/12/26 12:41:26;;;;;;;;;;;10.70;99.90;;;10.12;100.00;97438.97;5048331;28;19927;-40
2022/12/26 12:44:06;;;;;;;;;;;10.70;99.90;;;10.11;100.00;97426.72;5042305;28;20620;-40
2022/12/26 12:46:59;;;;;;;;;;;10.70;99.90;;;10.09;100.00;97422.41;5053524;28;20353;-40
2022/12/26 12:49:33;;;;;;;;;;;10.70;99.90;;;10.13;100.00;97426.66;5045120;28;19917;-40
2022/12/26 12:52:15;;;;;;;;;;;10.80;99.90;;;10.20;100.00;97425.53;5052528;28;20304;-40
2022/12/26 12:54:50;;;;;;;;;;;10.80;99.90;;;10.20;100.00;97433.44;5047195;28;19959;-40
2022/12/26 12:58:00;;;;;;;;;;;10.80;99.90;;;10.23;100.00;97427.19;5052751;28;19944;-40
2022/12/26 13:00:30;;;;;;;;;;;10.80;99.90;;;10.18;100.00;97431.78;5012840;28;20432;-40
2022/12/26 13:03:04;;;;;;;;;;;10.80;99.90;;;10.21;100.00;97429.91;5053466;28;20429;-40
2022/12/26 13:05:47;;;;;;;;;;;10.80;99.90;;;10.20;100.00;97427.31;5042732;28;19921;-40
2022/12/26 13:08:21;;;;;;;;;;;10.80;99.90;;;10.01;100.00;97398.09;5047891;28;19927;-40
2022/12/26 13:10:53;;;;;;;;;;;10.80;99.90;;;10.11;100.00;97429.34;5040044;28;19920;-40
2022/12/26 13:13:25;;;;;;;;;;;10.70;99.90;;;10.04;100.00;97412.03;5046216;28;20471;-39
2022/12/26 13:15:55;;;;;;;;;;;10.70;99.90;;;10.06;100.00;97417.25;5047892;28;20391;-39
2022/12/26 13:18:23;;;;;;;;;;;10.70;99.90;;;9.99;100.00;97429.75;5045392;28;19924;-40
2022/12/26 13:21:10;;;;;;;;;;;10.60;99.90;;;10.00;100.00;97418.31;5055349;28;20054;-40
2022/12/26 13:26:30;;;;;;;;;;;10.60;99.90;;;9.88;100.00;97403.78;5032295;28;19963;-40
2022/12/26 13:29:09;;;;;;;;;;;10.50;99.90;;;9.86;100.00;97395.06;5052278;28;19935;-40
2022/12/26 13:31:36;;;;;;;;;;;10.50;99.90;;;9.85;100.00;97382.84;5050775;28;19975;-39
2022/12/26 13:34:02;;;;;;;;;;;10.50;99.90;;;9.86;100.00;97394.22;5055292;28;19931;-40
2022/12/26 13:36:39;;;;;;;;;;;10.50;99.90;;;9.91;100.00;97392.28;5043072;28;19920;-39
2022/12/26 13:39:10;;;;;;;;;;;10.50;99.90;;;9.89;100.00;97389.72;5047119;28;19976;-40
2022/12/26 13:44:20;;;;;;;;;;;10.50;99.90;;;9.81;100.00;97396.16;5041328;28;19962;-40